Kairouan, Tunisia

9:46 PM CET on September 02, 2014 (GMT +0100)
Habib Bourguiba | Change Station
CLOSE
Current Station
Airport
Location: Habib Bourguiba,
Elevation: 7 ft
Nearby Weather Stations

Elev 7 ft 35.76 °N, 10.75 °E | Updated 16 minutes ago

Partly Cloudy
Partly Cloudy
79 °F
Feels Like 79 °F
N
14
Wind Variable Wind from WNW

Today
High -- | Low -- °F
--% Chance of Precip.
Yesterday
High -- | Low -- °F
Precip. -- in
5:52 AM 6:45 PM
First Quarter, 55% visible
Pressure 29.86 in
Visibility 6.2 miles
Clouds Few 2000 ft
Dew Point 61 °F
Humidity 54%
Rainfall 0.00 in
Snow Depth Not available.
UV 0 out of 12
Pollen Not available.
Air Quality Not available.
Flu Activity Not available.
METAR DTMB 022030Z 29012KT 9999 FEW020 26/16 Q1011 NOSIG

More Conditions Fewer Conditions

Pressure 29.86 in
Visibility 6.2 miles
Clouds Few 2000 ft
Dew Point 61 °F
Humidity 54%
Rainfall 0.00 in
Snow Depth Not available.
UV 0 out of 12
Pollen Not available.
Air Quality Not available.
Flu Activity Not available.
METAR DTMB 022030Z 29012KT 9999 FEW020 26/16 Q1011 NOSIG

More Conditions Fewer Conditions

10-Day Weather Forecast

Almanac

Astronomy

Sep. 02, 2014 Rise Set
Actual Time 5:52 AM CET 6:45 PM CET
Civil Twilight 5:26 AM CET 7:11 PM CET
Nautical Twilight 4:55 AM CET 7:42 PM CET
Astronomical Twilight 4:23 AM CET 8:14 PM CET
Moon 1:06 PM CET 11:38 PM CET
Length of Visible Light 13h 45m
Length of Day
12h 53m
Tomorrow will be 2m 11s shorter.
First Quarter, 55% of the Moon is Illuminated
Today
First Quarter
Sep 8
Full
Sep 15
Last Quarter
Sep 24
New
Oct 1
First Quarter

Today's Extremes

Country Highs Country Lows

Community

WunderPhotos

Upload Photos

1,749,763 photos uploaded!

WunderBlogs® & News

Nearby

Snow Depth

Not available.

Earthquake Activity

City Distance Mag. Time & Date
No recent earthquake activity has been reported nearby.
Minimum magnitude displayed is 2.5.

Coastal Water Temperatures

Place Temperature
No Stations Reporting

Nearby Weather Stations